sensor_id;sensor_type;location;lat;lon;timestamp;pressure;altitude;pressure_sealevel;temperature;humidity
24858;BME280;12935;50.782;6.074;2023-02-12T00:01:16;101625.69;;;7.16;100.00
24858;BME280;12935;50.782;6.074;2023-02-12T00:03:42;101630.16;;;7.29;100.00
24858;BME280;12935;50.782;6.074;2023-02-12T00:06:08;101625.88;;;7.36;100.00
24858;BME280;12935;50.782;6.074;2023-02-12T00:08:34;101627.78;;;7.45;100.00
24858;BME280;12935;50.782;6.074;2023-02-12T00:11:13;101632.91;;;7.46;100.00
24858;BME280;12935;50.782;6.074;2023-02-12T00:13:38;101636.59;;;7.50;100.00
24858;BME280;12935;50.782;6.074;2023-02-12T00:16:06;101624.44;;;7.39;100.00
24858;BME280;12935;50.782;6.074;2023-02-12T00:18:32;101631.59;;;7.44;100.00
24858;BME280;12935;50.782;6.074;2023-02-12T00:20:59;101627.78;;;7.45;100.00
24858;BME280;12935;50.782;6.074;2023-02-12T00:23:24;101622.97;;;7.50;100.00
24858;BME280;12935;50.782;6.074;2023-02-12T00:25:49;101634.81;;;7.54;100.00
24858;BME280;12935;50.782;6.074;2023-02-12T00:28:15;101643.13;;;7.58;100.00
24858;BME280;12935;50.782;6.074;2023-02-12T00:30:40;101638.97;;;7.60;100.00
24858;BME280;12935;50.782;6.074;2023-02-12T00:33:05;101634.97;;;7.58;100.00
24858;BME280;12935;50.782;6.074;2023-02-12T00:35:31;101631.91;;;7.59;100.00
24858;BME280;12935;50.782;6.074;2023-02-12T00:37:56;101636.88;;;7.57;100.00
24858;BME280;12935;50.782;6.074;2023-02-12T00:40:21;101645.69;;;7.63;100.00
24858;BME280;12935;50.782;6.074;2023-02-12T00:42:47;101639.94;;;7.64;100.00
24858;BME280;12935;50.782;6.074;2023-02-12T00:45:12;101639.63;;;7.66;100.00
24858;BME280;12935;50.782;6.074;2023-02-12T00:47:37;101633.38;;;7.65;100.00
24858;BME280;12935;50.782;6.074;2023-02-12T00:50:03;101628.41;;;7.50;100.00
24858;BME280;12935;50.782;6.074;2023-02-12T00:52:28;101637.06;;;7.35;100.00
24858;BME280;12935;50.782;6.074;2023-02-12T00:54:53;101639.78;;;7.35;100.00
24858;BME280;12935;50.782;6.074;2023-02-12T00:57:18;101638.34;;;7.37;100.00
24858;BME280;12935;50.782;6.074;2023-02-12T00:59:44;101630.66;;;7.31;100.00
24858;BME280;12935;50.782;6.074;2023-02-12T01:02:09;101630.66;;;7.39;100.00
24858;BME280;12935;50.782;6.074;2023-02-12T01:04:34;101630.50;;;7.36;100.00
24858;BME280;12935;50.782;6.074;2023-02-12T01:06:59;101640.09;;;7.42;100.00
24858;BME280;12935;50.782;6.074;2023-02-12T01:09:25;101635.44;;;7.43;100.00
24858;BME280;12935;50.782;6.074;2023-02-12T01:11:50;101635.13;;;7.35;100.00
24858;BME280;12935;50.782;6.074;2023-02-12T01:14:15;101638.66;;;7.45;100.00
24858;BME280;12935;50.782;6.074;2023-02-12T01:16:41;101629.84;;;7.48;100.00
24858;BME280;12935;50.782;6.074;2023-02-12T01:19:06;101628.25;;;7.47;100.00
24858;BME280;12935;50.782;6.074;2023-02-12T01:21:33;101624.72;;;7.46;100.00
24858;BME280;12935;50.782;6.074;2023-02-12T01:23:59;101625.53;;;7.47;100.00
24858;BME280;12935;50.782;6.074;2023-02-12T01:26:26;101631.28;;;7.45;100.00
24858;BME280;12935;50.782;6.074;2023-02-12T01:28:54;101625.03;;;7.45;100.00
24858;BME280;12935;50.782;6.074;2023-02-12T01:31:22;101621.38;;;7.49;100.00
24858;BME280;12935;50.782;6.074;2023-02-12T01:33:50;101620.41;;;7.54;100.00
24858;BME280;12935;50.782;6.074;2023-02-12T01:36:16;101624.88;;;7.58;100.00
24858;BME280;12935;50.782;6.074;2023-02-12T01:38:41;101623.75;;;7.59;100.00
24858;BME280;12935;50.782;6.074;2023-02-12T01:41:13;101621.03;;;7.59;100.00
24858;BME280;12935;50.782;6.074;2023-02-12T01:43:39;101619.13;;;7.60;100.00
24858;BME280;12935;50.782;6.074;2023-02-12T01:46:06;101617.50;;;7.59;100.00
24858;BME280;12935;50.782;6.074;2023-02-12T01:48:36;101621.84;;;7.60;100.00
24858;BME280;12935;50.782;6.074;2023-02-12T01:51:03;101617.19;;;7.60;100.00
24858;BME280;12935;50.782;6.074;2023-02-12T01:53:36;101617.22;;;7.43;100.00
24858;BME280;12935;50.782;6.074;2023-02-12T01:56:02;101618.00;;;7.18;100.00
24858;BME280;12935;50.782;6.074;2023-02-12T01:58:33;101612.25;;;7.28;100.00
24858;BME280;12935;50.782;6.074;2023-02-12T02:01:01;101605.38;;;7.39;100.00
24858;BME280;12935;50.782;6.074;2023-02-12T02:03:28;101609.22;;;7.47;100.00
24858;BME280;12935;50.782;6.074;2023-02-12T02:05:57;101612.56;;;7.52;100.00
24858;BME280;12935;50.782;6.074;2023-02-12T02:08:24;101613.38;;;7.53;100.00
24858;BME280;12935;50.782;6.074;2023-02-12T02:10:50;101606.03;;;7.53;100.00
24858;BME280;12935;50.782;6.074;2023-02-12T02:13:15;101605.22;;;7.35;100.00
24858;BME280;12935;50.782;6.074;2023-02-12T02:16:07;101608.72;;;7.10;100.00
24858;BME280;12935;50.782;6.074;2023-02-12T02:18:43;101605.22;;;7.27;100.00
24858;BME280;12935;50.782;6.074;2023-02-12T02:32:21;101609.75;;;6.57;100.00
24858;BME280;12935;50.782;6.074;2023-02-12T02:37:26;101605.78;;;6.81;100.00
24858;BME280;12935;50.782;6.074;2023-02-12T02:39:58;101606.59;;;6.81;100.00
24858;BME280;12935;50.782;6.074;2023-02-12T02:42:40;101612.22;;;7.02;100.00
24858;BME280;12935;50.782;6.074;2023-02-12T02:45:15;101611.28;;;7.15;100.00
24858;BME280;12935;50.782;6.074;2023-02-12T02:47:48;101605.88;;;7.24;100.00
24858;BME280;12935;50.782;6.074;2023-02-12T02:50:18;101608.25;;;7.25;100.00
24858;BME280;12935;50.782;6.074;2023-02-12T02:52:58;101602.97;;;7.29;100.00
24858;BME280;12935;50.782;6.074;2023-02-12T02:55:26;101597.69;;;7.15;100.00
24858;BME280;12935;50.782;6.074;2023-02-12T02:57:56;101597.84;;;7.10;100.00
24858;BME280;12935;50.782;6.074;2023-02-12T03:00:30;101594.97;;;7.15;100.00
24858;BME280;12935;50.782;6.074;2023-02-12T03:03:03;101593.38;;;7.14;100.00
24858;BME280;12935;50.782;6.074;2023-02-12T03:05:34;101593.84;;;7.16;100.00
24858;BME280;12935;50.782;6.074;2023-02-12T03:08:11;101586.34;;;7.04;100.00
24858;BME280;12935;50.782;6.074;2023-02-12T03:10:42;101591.28;;;7.02;100.00
24858;BME280;12935;50.782;6.074;2023-02-12T03:13:22;101584.22;;;6.84;100.00
24858;BME280;12935;50.782;6.074;2023-02-12T03:16:04;101581.47;;;6.58;100.00
24858;BME280;12935;50.782;6.074;2023-02-12T03:18:36;101587.84;;;6.62;100.00
24858;BME280;12935;50.782;6.074;2023-02-12T03:21:09;101588.69;;;6.80;100.00
24858;BME280;12935;50.782;6.074;2023-02-12T03:23:41;101587.91;;;6.97;100.00
24858;BME280;12935;50.782;6.074;2023-02-12T03:26:12;101591.88;;;6.82;100.00
24858;BME280;12935;50.782;6.074;2023-02-12T03:28:39;101585.78;;;6.68;100.00
24858;BME280;12935;50.782;6.074;2023-02-12T03:36:34;101588.09;;;7.00;100.00
24858;BME280;12935;50.782;6.074;2023-02-12T03:39:08;101592.72;;;6.91;100.00
24858;BME280;12935;50.782;6.074;2023-02-12T03:41:48;101593.03;;;6.90;100.00
24858;BME280;12935;50.782;6.074;2023-02-12T03:44:32;101583.72;;;6.74;100.00
24858;BME280;12935;50.782;6.074;2023-02-12T03:52:35;101594.16;;;6.89;100.00
24858;BME280;12935;50.782;6.074;2023-02-12T03:55:01;101593.66;;;6.95;100.00
24858;BME280;12935;50.782;6.074;2023-02-12T03:57:30;101592.22;;;6.89;100.00
24858;BME280;12935;50.782;6.074;2023-02-12T04:00:05;101597.34;;;6.91;100.00
24858;BME280;12935;50.782;6.074;2023-02-12T04:02:32;101593.84;;;6.99;100.00
24858;BME280;12935;50.782;6.074;2023-02-12T04:05:03;101592.38;;;6.84;100.00
24858;BME280;12935;50.782;6.074;2023-02-12T04:07:29;101591.72;;;6.70;100.00
24858;BME280;12935;50.782;6.074;2023-02-12T04:09:54;101595.09;;;6.76;100.00
24858;BME280;12935;50.782;6.074;2023-02-12T04:15:31;101591.25;;;6.94;100.00
24858;BME280;12935;50.782;6.074;2023-02-12T04:18:06;101592.84;;;6.86;100.00
24858;BME280;12935;50.782;6.074;2023-02-12T04:20:44;101603.25;;;6.93;100.00
24858;BME280;12935;50.782;6.074;2023-02-12T04:26:20;101608.19;;;6.82;100.00
24858;BME280;12935;50.782;6.074;2023-02-12T04:31:52;101613.50;;;6.96;100.00
24858;BME280;12935;50.782;6.074;2023-02-12T04:34:34;101608.41;;;7.03;100.00
24858;BME280;12935;50.782;6.074;2023-02-12T04:37:08;101611.59;;;7.05;100.00
24858;BME280;12935;50.782;6.074;2023-02-12T04:39:38;101617.50;;;6.90;100.00
24858;BME280;12935;50.782;6.074;2023-02-12T04:42:05;101612.03;;;6.81;100.00
24858;BME280;12935;50.782;6.074;2023-02-12T04:44:33;101621.00;;;6.90;100.00
24858;BME280;12935;50.782;6.074;2023-02-12T04:46:59;101620.06;;;7.03;100.00
24858;BME280;12935;50.782;6.074;2023-02-12T04:49:25;101619.13;;;7.08;100.00
24858;BME280;12935;50.782;6.074;2023-02-12T04:51:51;101621.66;;;7.13;100.00
24858;BME280;12935;50.782;6.074;2023-02-12T04:54:18;101622.78;;;7.12;100.00
24858;BME280;12935;50.782;6.074;2023-02-12T04:56:43;101621.34;;;7.06;100.00
24858;BME280;12935;50.782;6.074;2023-02-12T04:59:09;101618.47;;;7.02;100.00
24858;BME280;12935;50.782;6.074;2023-02-12T05:01:37;101620.56;;;7.06;100.00
24858;BME280;12935;50.782;6.074;2023-02-12T05:04:02;101617.84;;;7.06;100.00
24858;BME280;12935;50.782;6.074;2023-02-12T05:06:28;101612.72;;;7.13;100.00
24858;BME280;12935;50.782;6.074;2023-02-12T05:08:56;101614.00;;;7.07;100.00
24858;BME280;12935;50.782;6.074;2023-02-12T05:11:22;101611.75;;;7.00;100.00
24858;BME280;12935;50.782;6.074;2023-02-12T05:13:51;101617.34;;;7.12;100.00
24858;BME280;12935;50.782;6.074;2023-02-12T05:16:17;101619.44;;;7.07;100.00
24858;BME280;12935;50.782;6.074;2023-02-12T05:18:43;101612.53;;;7.00;100.00
24858;BME280;12935;50.782;6.074;2023-02-12T05:21:08;101617.66;;;7.11;100.00
24858;BME280;12935;50.782;6.074;2023-02-12T05:23:36;101615.25;;;7.09;100.00
24858;BME280;12935;50.782;6.074;2023-02-12T05:26:05;101619.13;;;7.08;100.00
24858;BME280;12935;50.782;6.074;2023-02-12T05:28:31;101612.22;;;7.11;100.00
24858;BME280;12935;50.782;6.074;2023-02-12T05:31:05;101624.88;;;7.15;100.00
24858;BME280;12935;50.782;6.074;2023-02-12T05:33:31;101626.31;;;7.13;100.00
24858;BME280;12935;50.782;6.074;2023-02-12T05:38:29;101621.19;;;7.02;100.00
24858;BME280;12935;50.782;6.074;2023-02-12T05:41:01;101616.06;;;7.01;100.00
24858;BME280;12935;50.782;6.074;2023-02-12T05:43:26;101624.72;;;7.12;100.00
24858;BME280;12935;50.782;6.074;2023-02-12T05:45:51;101622.66;;;7.17;100.00
24858;BME280;12935;50.782;6.074;2023-02-12T05:48:17;101622.00;;;7.20;100.00
24858;BME280;12935;50.782;6.074;2023-02-12T05:50:42;101622.50;;;7.22;100.00
24858;BME280;12935;50.782;6.074;2023-02-12T05:53:07;101629.19;;;7.25;100.00
24858;BME280;12935;50.782;6.074;2023-02-12T05:55:32;101621.66;;;7.04;100.00
24858;BME280;12935;50.782;6.074;2023-02-12T05:57:58;101622.88;;;6.81;100.00
24858;BME280;12935;50.782;6.074;2023-02-12T06:00:23;101624.00;;;6.72;100.00
24858;BME280;12935;50.782;6.074;2023-02-12T06:02:48;101629.66;;;6.92;100.00
24858;BME280;12935;50.782;6.074;2023-02-12T06:05:14;101629.81;;;7.04;100.00
24858;BME280;12935;50.782;6.074;2023-02-12T06:07:39;101633.03;;;7.07;100.00
24858;BME280;12935;50.782;6.074;2023-02-12T06:10:05;101630.09;;;6.94;100.00
24858;BME280;12935;50.782;6.074;2023-02-12T06:12:30;101636.84;;;6.88;100.00
24858;BME280;12935;50.782;6.074;2023-02-12T06:14:56;101632.81;;;6.86;100.00
24858;BME280;12935;50.782;6.074;2023-02-12T06:17:21;101632.34;;;6.84;100.00
24858;BME280;12935;50.782;6.074;2023-02-12T06:19:46;101635.31;;;6.65;100.00
24858;BME280;12935;50.782;6.074;2023-02-12T06:22:11;101641.97;;;6.50;100.00
24858;BME280;12935;50.782;6.074;2023-02-12T06:24:37;101640.84;;;6.51;100.00
24858;BME280;12935;50.782;6.074;2023-02-12T06:27:02;101637.09;;;6.69;100.00
24858;BME280;12935;50.782;6.074;2023-02-12T06:29:27;101634.06;;;6.80;100.00
24858;BME280;12935;50.782;6.074;2023-02-12T06:31:52;101640.31;;;6.80;100.00
24858;BME280;12935;50.782;6.074;2023-02-12T06:34:18;101641.28;;;6.84;100.00
24858;BME280;12935;50.782;6.074;2023-02-12T06:36:45;101647.38;;;6.90;100.00
24858;BME280;12935;50.782;6.074;2023-02-12T06:39:12;101643.25;;;6.92;100.00
24858;BME280;12935;50.782;6.074;2023-02-12T06:41:38;101646.59;;;6.89;100.00
24858;BME280;12935;50.782;6.074;2023-02-12T06:44:04;101654.13;;;6.92;100.00
24858;BME280;12935;50.782;6.074;2023-02-12T06:46:30;101646.72;;;6.84;100.00
24858;BME280;12935;50.782;6.074;2023-02-12T06:48:57;101647.53;;;6.85;100.00
24858;BME280;12935;50.782;6.074;2023-02-12T06:51:24;101650.59;;;6.92;100.00
24858;BME280;12935;50.782;6.074;2023-02-12T06:53:51;101649.44;;;6.93;100.00
24858;BME280;12935;50.782;6.074;2023-02-12T06:56:18;101657.94;;;6.91;100.00
24858;BME280;12935;50.782;6.074;2023-02-12T06:58:46;101659.38;;;6.89;100.00
24858;BME280;12935;50.782;6.074;2023-02-12T07:01:20;101658.09;;;6.95;100.00
24858;BME280;12935;50.782;6.074;2023-02-12T07:03:51;101654.13;;;7.01;100.00
24858;BME280;12935;50.782;6.074;2023-02-12T07:06:17;101661.91;;;6.94;100.00
24858;BME280;12935;50.782;6.074;2023-02-12T07:08:42;101657.88;;;6.74;100.00
24858;BME280;12935;50.782;6.074;2023-02-12T07:11:08;101659.75;;;6.56;100.00
24858;BME280;12935;50.782;6.074;2023-02-12T07:13:33;101656.94;;;6.39;100.00
24858;BME280;12935;50.782;6.074;2023-02-12T07:16:10;101658.66;;;6.26;100.00
24858;BME280;12935;50.782;6.074;2023-02-12T07:18:36;101661.59;;;6.16;100.00
24858;BME280;12935;50.782;6.074;2023-02-12T07:21:03;101663.22;;;6.17;100.00
24858;BME280;12935;50.782;6.074;2023-02-12T07:23:29;101666.53;;;6.14;100.00
24858;BME280;12935;50.782;6.074;2023-02-12T07:25:59;101674.38;;;6.16;100.00
24858;BME280;12935;50.782;6.074;2023-02-12T07:28:25;101679.00;;;6.15;100.00
24858;BME280;12935;50.782;6.074;2023-02-12T07:30:51;101676.16;;;6.20;100.00
24858;BME280;12935;50.782;6.074;2023-02-12T07:33:17;101671.84;;;6.19;100.00
24858;BME280;12935;50.782;6.074;2023-02-12T07:35:42;101675.84;;;6.22;100.00
24858;BME280;12935;50.782;6.074;2023-02-12T07:38:07;101689.94;;;6.24;100.00
24858;BME280;12935;50.782;6.074;2023-02-12T07:40:33;101692.88;;;6.36;100.00
24858;BME280;12935;50.782;6.074;2023-02-12T07:42:58;101689.81;;;6.60;100.00
24858;BME280;12935;50.782;6.074;2023-02-12T07:45:23;101689.53;;;6.79;100.00
24858;BME280;12935;50.782;6.074;2023-02-12T07:47:49;101695.00;;;6.87;100.00
24858;BME280;12935;50.782;6.074;2023-02-12T07:50:14;101693.59;;;6.90;100.00
24858;BME280;12935;50.782;6.074;2023-02-12T07:52:39;101700.03;;;7.02;100.00
24858;BME280;12935;50.782;6.074;2023-02-12T07:55:05;101690.38;;;6.88;100.00
24858;BME280;12935;50.782;6.074;2023-02-12T07:57:30;101694.81;;;6.75;100.00
24858;BME280;12935;50.782;6.074;2023-02-12T07:59:56;101693.66;;;6.67;100.00
24858;BME280;12935;50.782;6.074;2023-02-12T08:02:21;101707.38;;;6.62;100.00
24858;BME280;12935;50.782;6.074;2023-02-12T08:04:49;101695.88;;;6.65;100.00
24858;BME280;12935;50.782;6.074;2023-02-12T08:07:18;101693.72;;;6.76;100.00
24858;BME280;12935;50.782;6.074;2023-02-12T08:09:44;101697.88;;;6.82;100.00
24858;BME280;12935;50.782;6.074;2023-02-12T08:12:09;101699.13;;;6.76;100.00
24858;BME280;12935;50.782;6.074;2023-02-12T08:14:34;101694.59;;;6.63;100.00
24858;BME280;12935;50.782;6.074;2023-02-12T08:16:59;101690.25;;;6.53;100.00
24858;BME280;12935;50.782;6.074;2023-02-12T08:19:25;101691.84;;;6.54;100.00
24858;BME280;12935;50.782;6.074;2023-02-12T08:21:51;101696.16;;;6.55;100.00
24858;BME280;12935;50.782;6.074;2023-02-12T08:24:17;101692.03;;;6.58;100.00
24858;BME280;12935;50.782;6.074;2023-02-12T08:26:42;101697.78;;;6.56;100.00
24858;BME280;12935;50.782;6.074;2023-02-12T08:29:11;101694.91;;;6.61;100.00
24858;BME280;12935;50.782;6.074;2023-02-12T08:31:42;101703.03;;;6.61;100.00
24858;BME280;12935;50.782;6.074;2023-02-12T08:34:16;101691.56;;;6.64;100.00
24858;BME280;12935;50.782;6.074;2023-02-12T08:36:42;101692.41;;;6.74;100.00
24858;BME280;12935;50.782;6.074;2023-02-12T08:39:08;101700.06;;;6.72;100.00
24858;BME280;12935;50.782;6.074;2023-02-12T08:41:34;101695.13;;;6.74;100.00
24858;BME280;12935;50.782;6.074;2023-02-12T08:44:02;101690.19;;;6.76;100.00
24858;BME280;12935;50.782;6.074;2023-02-12T08:46:30;101693.06;;;6.79;100.00
24858;BME280;12935;50.782;6.074;2023-02-12T08:48:58;101696.63;;;6.88;100.00
24858;BME280;12935;50.782;6.074;2023-02-12T08:51:29;101696.38;;;7.07;100.00
24858;BME280;12935;50.782;6.074;2023-02-12T08:53:58;101695.25;;;7.25;100.00
24858;BME280;12935;50.782;6.074;2023-02-12T08:56:25;101696.84;;;7.18;100.00
24858;BME280;12935;50.782;6.074;2023-02-12T08:58:51;101709.16;;;7.15;100.00
24858;BME280;12935;50.782;6.074;2023-02-12T09:01:19;101703.59;;;7.20;100.00
24858;BME280;12935;50.782;6.074;2023-02-12T09:03:45;101697.97;;;7.17;100.00
24858;BME280;12935;50.782;6.074;2023-02-12T09:06:11;101693.78;;;7.11;100.00
24858;BME280;12935;50.782;6.074;2023-02-12T09:08:38;101699.09;;;7.16;100.00
24858;BME280;12935;50.782;6.074;2023-02-12T09:11:17;101706.81;;;7.39;100.00
24858;BME280;12935;50.782;6.074;2023-02-12T09:13:44;101704.09;;;7.39;100.00
24858;BME280;12935;50.782;6.074;2023-02-12T09:16:10;101707.47;;;7.36;100.00
24858;BME280;12935;50.782;6.074;2023-02-12T09:18:35;101708.56;;;7.35;100.00
24858;BME280;12935;50.782;6.074;2023-02-12T09:21:03;101711.91;;;7.41;100.00
24858;BME280;12935;50.782;6.074;2023-02-12T09:23:28;101711.13;;;7.40;100.00
24858;BME280;12935;50.782;6.074;2023-02-12T09:25:54;101714.50;;;7.37;100.00
24858;BME280;12935;50.782;6.074;2023-02-12T09:28:19;101706.03;;;7.39;100.00
24858;BME280;12935;50.782;6.074;2023-02-12T09:30:44;101707.59;;;7.40;100.00
24858;BME280;12935;50.782;6.074;2023-02-12T09:33:10;101711.94;;;7.50;100.00
24858;BME280;12935;50.782;6.074;2023-02-12T09:35:37;101697.69;;;7.44;100.00
24858;BME280;12935;50.782;6.074;2023-02-12T09:38:03;101712.13;;;7.53;100.00
24858;BME280;12935;50.782;6.074;2023-02-12T09:40:43;101716.59;;;7.58;100.00
24858;BME280;12935;50.782;6.074;2023-02-12T09:45:43;101713.88;;;7.66;100.00
24858;BME280;12935;50.782;6.074;2023-02-12T09:50:58;101712.13;;;7.70;100.00
24858;BME280;12935;50.782;6.074;2023-02-12T09:53:29;101706.19;;;7.94;100.00
24858;BME280;12935;50.782;6.074;2023-02-12T09:55:55;101712.75;;;8.10;100.00
24858;BME280;12935;50.782;6.074;2023-02-12T09:58:33;101719.28;;;8.35;100.00
24858;BME280;12935;50.782;6.074;2023-02-12T10:01:01;101719.25;;;8.53;100.00
24858;BME280;12935;50.782;6.074;2023-02-12T10:03:34;101719.50;;;8.68;100.00
24858;BME280;12935;50.782;6.074;2023-02-12T10:06:04;101725.09;;;8.81;100.00
24858;BME280;12935;50.782;6.074;2023-02-12T10:08:53;101736.09;;;8.93;100.00
24858;BME280;12935;50.782;6.074;2023-02-12T10:14:36;101736.59;;;8.86;100.00
24858;BME280;12935;50.782;6.074;2023-02-12T10:17:22;101735.16;;;8.89;100.00
24858;BME280;12935;50.782;6.074;2023-02-12T10:20:20;101737.06;;;8.88;100.00
24858;BME280;12935;50.782;6.074;2023-02-12T10:25:50;101733.78;;;9.03;100.00
24858;BME280;12935;50.782;6.074;2023-02-12T10:31:28;101735.13;;;9.27;100.00
24858;BME280;12935;50.782;6.074;2023-02-12T10:33:55;101731.06;;;9.33;100.00
24858;BME280;12935;50.782;6.074;2023-02-12T10:36:44;101735.22;;;9.39;100.00
24858;BME280;12935;50.782;6.074;2023-02-12T10:39:12;101739.00;;;9.46;100.00
24858;BME280;12935;50.782;6.074;2023-02-12T10:41:43;101731.81;;;9.42;100.00
24858;BME280;12935;50.782;6.074;2023-02-12T10:44:12;101735.13;;;9.27;100.00
24858;BME280;12935;50.782;6.074;2023-02-12T10:46:37;101743.41;;;9.09;100.00
24858;BME280;12935;50.782;6.074;2023-02-12T10:49:04;101747.50;;;8.86;100.00
24858;BME280;12935;50.782;6.074;2023-02-12T10:54:40;101745.03;;;8.64;100.00
24858;BME280;12935;50.782;6.074;2023-02-12T10:57:12;101743.03;;;8.82;100.00
24858;BME280;12935;50.782;6.074;2023-02-12T10:59:40;101739.72;;;9.05;100.00
24858;BME280;12935;50.782;6.074;2023-02-12T11:02:18;101739.06;;;9.08;100.00
24858;BME280;12935;50.782;6.074;2023-02-12T11:04:43;101740.13;;;9.25;100.00
24858;BME280;12935;50.782;6.074;2023-02-12T11:07:09;101731.59;;;9.26;100.00
24858;BME280;12935;50.782;6.074;2023-02-12T11:09:37;101738.19;;;9.46;100.00
24858;BME280;12935;50.782;6.074;2023-02-12T11:12:38;101731.97;;;9.66;100.00
24858;BME280;12935;50.782;6.074;2023-02-12T11:15:21;101721.44;;;9.77;100.00
24858;BME280;12935;50.782;6.074;2023-02-12T11:18:07;101716.25;;;9.84;100.00
24858;BME280;12935;50.782;6.074;2023-02-12T11:20:38;101714.47;;;9.88;100.00
24858;BME280;12935;50.782;6.074;2023-02-12T11:23:22;101711.31;;;9.77;100.00
24858;BME280;12935;50.782;6.074;2023-02-12T11:28:28;101704.16;;;9.73;100.00
24858;BME280;12935;50.782;6.074;2023-02-12T11:33:39;101694.84;;;10.07;100.00
24858;BME280;12935;50.782;6.074;2023-02-12T11:36:13;101695.03;;;10.23;100.00
24858;BME280;12935;50.782;6.074;2023-02-12T11:38:49;101682.41;;;10.30;100.00
24858;BME280;12935;50.782;6.074;2023-02-12T11:41:25;101689.00;;;10.29;100.00
24858;BME280;12935;50.782;6.074;2023-02-12T11:43:53;101681.75;;;10.33;100.00
24858;BME280;12935;50.782;6.074;2023-02-12T11:46:23;101683.81;;;10.36;100.00
24858;BME280;12935;50.782;6.074;2023-02-12T11:48:50;101676.06;;;10.38;100.00
24858;BME280;12935;50.782;6.074;2023-02-12T11:51:20;101674.00;;;10.47;100.00
24858;BME280;12935;50.782;6.074;2023-02-12T11:53:49;101655.09;;;10.42;100.00
24858;BME280;12935;50.782;6.074;2023-02-12T11:56:16;101674.16;;;10.51;100.00
24858;BME280;12935;50.782;6.074;2023-02-12T11:58:42;101671.06;;;10.52;100.00
24858;BME280;12935;50.782;6.074;2023-02-12T12:01:26;101673.69;;;10.49;100.00
24858;BME280;12935;50.782;6.074;2023-02-12T12:04:02;101665.47;;;10.04;100.00
24858;BME280;12935;50.782;6.074;2023-02-12T12:06:34;101656.69;;;9.98;100.00
24858;BME280;12935;50.782;6.074;2023-02-12T12:09:09;101656.44;;;9.91;100.00
24858;BME280;12935;50.782;6.074;2023-02-12T12:11:46;101653.06;;;10.06;100.00
24858;BME280;12935;50.782;6.074;2023-02-12T12:14:33;101653.28;;;10.01;100.00
24858;BME280;12935;50.782;6.074;2023-02-12T12:17:24;101649.28;;;9.99;100.00
24858;BME280;12935;50.782;6.074;2023-02-12T12:20:13;101649.94;;;9.96;100.00
24858;BME280;12935;50.782;6.074;2023-02-12T12:22:49;101649.88;;;10.04;100.00
24858;BME280;12935;50.782;6.074;2023-02-12T12:25:25;101641.59;;;10.13;100.00
24858;BME280;12935;50.782;6.074;2023-02-12T12:28:22;101631.72;;;10.21;100.00
24858;BME280;12935;50.782;6.074;2023-02-12T12:31:11;101633.34;;;10.22;100.00
24858;BME280;12935;50.782;6.074;2023-02-12T12:33:59;101625.69;;;10.27;100.00
24858;BME280;12935;50.782;6.074;2023-02-12T12:44:50;101625.03;;;10.30;100.00
24858;BME280;12935;50.782;6.074;2023-02-12T12:53:46;101621.03;;;10.28;100.00
24858;BME280;12935;50.782;6.074;2023-02-12T13:15:53;101596.56;;;10.31;100.00
24858;BME280;12935;50.782;6.074;2023-02-12T13:18:27;101600.69;;;10.37;100.00
24858;BME280;12935;50.782;6.074;2023-02-12T13:21:08;101591.44;;;10.42;100.00
24858;BME280;12935;50.782;6.074;2023-02-12T13:26:20;101597.44;;;10.23;100.00
24858;BME280;12935;50.782;6.074;2023-02-12T13:28:57;101588.34;;;10.19;100.00
24858;BME280;12935;50.782;6.074;2023-02-12T13:31:27;101586.88;;;10.22;100.00
24858;BME280;12935;50.782;6.074;2023-02-12T13:33:56;101580.97;;;10.19;100.00
24858;BME280;12935;50.782;6.074;2023-02-12T13:36:22;101581.50;;;10.25;100.00
24858;BME280;12935;50.782;6.074;2023-02-12T13:38:55;101575.50;;;10.19;100.00
24858;BME280;12935;50.782;6.074;2023-02-12T13:41:23;101568.59;;;10.01;100.00
24858;BME280;12935;50.782;6.074;2023-02-12T13:46:50;101576.38;;;10.24;100.00
24858;BME280;12935;50.782;6.074;2023-02-12T13:56:59;101564.88;;;10.18;100.00
24858;BME280;12935;50.782;6.074;2023-02-12T14:01:58;101568.91;;;10.33;100.00
24858;BME280;12935;50.782;6.074;2023-02-12T14:04:27;101561.34;;;10.17;100.00
24858;BME280;12935;50.782;6.074;2023-02-12T14:06:57;101559.16;;;10.11;100.00
24858;BME280;12935;50.782;6.074;2023-02-12T14:09:33;101558.78;;;10.21;100.00
24858;BME280;12935;50.782;6.074;2023-02-12T14:12:01;101557.38;;;10.27;100.00
24858;BME280;12935;50.782;6.074;2023-02-12T14:14:31;101556.22;;;10.04;100.00
24858;BME280;12935;50.782;6.074;2023-02-12T14:27:47;101562.69;;;10.11;100.00
24858;BME280;12935;50.782;6.074;2023-02-12T14:30:30;101563.59;;;10.03;100.00
24858;BME280;12935;50.782;6.074;2023-02-12T14:33:08;101559.16;;;10.11;100.00
24858;BME280;12935;50.782;6.074;2023-02-12T14:40:43;101566.34;;;10.03;100.00
24858;BME280;12935;50.782;6.074;2023-02-12T14:43:29;101560.06;;;10.03;100.00
24858;BME280;12935;50.782;6.074;2023-02-12T14:45:59;101568.16;;;10.11;100.00
24858;BME280;12935;50.782;6.074;2023-02-12T14:49:02;101566.69;;;10.14;100.00
24858;BME280;12935;50.782;6.074;2023-02-12T14:51:42;101567.81;;;10.13;100.00
24858;BME280;12935;50.782;6.074;2023-02-12T14:54:16;101562.34;;;10.13;100.00
24858;BME280;12935;50.782;6.074;2023-02-12T14:56:46;101566.22;;;10.12;100.00
24858;BME280;12935;50.782;6.074;2023-02-12T14:59:23;101564.97;;;10.09;100.00
24858;BME280;12935;50.782;6.074;2023-02-12T15:01:50;101561.44;;;10.09;100.00
24858;BME280;12935;50.782;6.074;2023-02-12T15:04:37;101564.97;;;10.09;100.00
24858;BME280;12935;50.782;6.074;2023-02-12T15:07:08;101571.66;;;10.00;100.00